Time;durP1;ratioP1;P1;durP2;ratioP2;P2;SDS_P1;SDS_P2;PMS_P1;PMS_P2;Temp;Humidity;BMP_temperature;BMP_pressure;BME280_temperature;BME280_humidity;BME280_pressure;Samples;Min_cycle;Max_cycle;Signal;HPM_P1;HPM_P2
2023/12/01 00:01:09;;;;;;;46.30;18.65;;;2.20;99.90;;;;;;5066177;28;20063;-63
2023/12/01 00:03:35;;;;;;;42.08;17.48;;;2.20;99.90;;;;;;5052292;28;20068;-61
2023/12/01 00:06:00;;;;;;;43.75;18.20;;;2.20;99.90;;;;;;5067492;28;20048;-64
2023/12/01 00:08:26;;;;;;;43.95;18.27;;;2.20;99.90;;;;;;5040260;28;20491;-65
2023/12/01 00:10:52;;;;;;;46.53;19.42;;;2.20;99.90;;;;;;5054023;28;20067;-64
2023/12/01 00:13:17;;;;;;;44.97;17.98;;;2.20;99.90;;;;;;5067595;28;20371;-64
2023/12/01 00:15:43;;;;;;;48.75;19.73;;;2.20;99.90;;;;;;5034492;28;20032;-65
2023/12/01 00:18:08;;;;;;;49.33;18.67;;;2.20;99.90;;;;;;5067492;28;20053;-64
2023/12/01 00:20:34;;;;;;;45.30;18.05;;;2.20;99.90;;;;;;5029379;28;1158351;-65
2023/12/01 00:22:59;;;;;;;44.53;17.75;;;2.20;99.90;;;;;;5066540;28;20103;-63
2023/12/01 00:25:25;;;;;;;45.33;17.73;;;2.20;99.90;;;;;;5070137;28;20050;-65
2023/12/01 00:27:50;;;;;;;46.40;19.15;;;2.10;99.90;;;;;;5070268;28;20116;-65
2023/12/01 00:30:16;;;;;;;46.92;18.02;;;2.20;99.90;;;;;;5049724;28;20071;-64
2023/12/01 00:32:42;;;;;;;45.20;18.17;;;2.10;99.90;;;;;;5070726;28;20032;-64
2023/12/01 00:35:08;;;;;;;46.63;19.58;;;2.10;99.90;;;;;;5049168;28;20105;-65
2023/12/01 00:37:33;;;;;;;45.40;18.00;;;2.10;99.90;;;;;;5067247;28;20040;-65
2023/12/01 00:39:59;;;;;;;43.08;17.63;;;2.10;99.90;;;;;;5069813;28;20097;-65
2023/12/01 00:42:25;;;;;;;44.35;17.63;;;2.10;99.90;;;;;;5070753;28;20033;-65
2023/12/01 00:44:51;;;;;;;47.72;18.50;;;2.10;99.90;;;;;;5069847;28;20048;-64
2023/12/01 00:47:16;;;;;;;48.47;18.90;;;2.10;99.90;;;;;;5065637;28;20033;-64
2023/12/01 00:49:42;;;;;;;43.20;17.23;;;2.10;99.90;;;;;;5050096;28;20051;-62
2023/12/01 00:52:07;;;;;;;46.92;18.00;;;2.10;99.90;;;;;;5070163;28;20036;-64
2023/12/01 00:54:33;;;;;;;44.63;18.20;;;2.10;99.90;;;;;;5069896;28;20040;-64
2023/12/01 00:56:59;;;;;;;48.22;18.92;;;2.10;99.90;;;;;;5069838;28;20132;-64
2023/12/01 00:59:24;;;;;;;46.13;17.92;;;2.10;99.90;;;;;;5070578;28;20037;-62
2023/12/01 01:01:50;;;;;;;49.13;17.48;;;2.10;99.90;;;;;;5069622;28;20101;-63
2023/12/01 01:04:15;;;;;;;44.88;18.52;;;2.10;99.90;;;;;;5069299;28;20067;-64
2023/12/01 01:06:41;;;;;;;49.42;18.73;;;2.10;99.90;;;;;;5069765;28;20043;-64
2023/12/01 01:09:08;;;;;;;46.55;18.30;;;2.10;99.90;;;;;;5070036;28;20089;-64
2023/12/01 01:11:52;;;;;;;48.17;18.52;;;2.10;99.90;;;;;;5070316;28;20506;-63
2023/12/01 01:14:18;;;;;;;45.10;18.15;;;2.10;99.90;;;;;;5051591;28;20041;-64
2023/12/01 01:16:43;;;;;;;46.35;17.60;;;2.10;99.90;;;;;;5069405;28;20406;-64
2023/12/01 01:19:09;;;;;;;49.60;18.55;;;2.10;99.90;;;;;;5069826;28;20075;-61
2023/12/01 01:21:34;;;;;;;48.67;18.23;;;2.10;99.90;;;;;;5072891;28;20032;-65
2023/12/01 01:24:00;;;;;;;46.72;18.08;;;2.10;99.90;;;;;;5063199;28;20039;-65
2023/12/01 01:26:26;;;;;;;45.25;17.80;;;2.10;99.90;;;;;;5068919;28;20036;-64
2023/12/01 01:28:51;;;;;;;46.83;17.27;;;2.10;99.90;;;;;;5052170;28;20079;-63
2023/12/01 01:31:17;;;;;;;46.33;18.00;;;2.10;99.90;;;;;;5069544;28;20032;-64
2023/12/01 01:33:42;;;;;;;44.63;16.98;;;2.10;99.90;;;;;;5052251;28;20076;-65
2023/12/01 01:36:08;;;;;;;48.92;18.33;;;2.10;99.90;;;;;;5062822;28;20036;-64
2023/12/01 01:38:34;;;;;;;46.80;17.85;;;2.10;99.90;;;;;;5071109;28;20526;-65
2023/12/01 01:41:00;;;;;;;46.25;18.23;;;2.10;99.90;;;;;;5050356;28;20072;-64
2023/12/01 01:43:26;;;;;;;44.75;16.63;;;2.10;99.90;;;;;;5073151;28;20040;-65
2023/12/01 01:46:06;;;;;;;46.78;17.02;;;2.10;99.90;;;;;;5074021;28;20103;-64
2023/12/01 01:48:33;;;;;;;40.40;15.80;;;2.10;99.90;;;;;;5055907;28;20068;-64
2023/12/01 01:51:00;;;;;;;43.95;16.13;;;2.10;99.90;;;;;;5073539;28;20090;-63
2023/12/01 01:53:27;;;;;;;43.85;16.75;;;2.00;99.90;;;;;;5067629;28;20398;-63
2023/12/01 01:55:54;;;;;;;39.83;15.80;;;2.00;99.90;;;;;;5072790;28;20048;-63
2023/12/01 01:58:20;;;;;;;38.03;15.38;;;2.00;99.90;;;;;;5068425;28;20500;-64
2023/12/01 02:00:49;;;;;;;44.15;15.82;;;2.00;99.90;;;;;;5073336;28;20035;-63
2023/12/01 02:03:16;;;;;;;41.80;15.98;;;2.00;99.90;;;;;;5073842;28;20175;-63
2023/12/01 02:05:42;;;;;;;38.88;16.15;;;2.00;99.90;;;;;;5071407;28;20040;-63
2023/12/01 02:08:29;;;;;;;39.88;15.93;;;2.00;99.90;;;;;;5064512;28;20059;-63
2023/12/01 02:10:57;;;;;;;38.30;16.20;;;2.00;99.90;;;;;;5052752;28;20131;-64
2023/12/01 02:13:23;;;;;;;41.75;15.25;;;1.90;99.90;;;;;;5066702;28;20064;-64
2023/12/01 02:15:50;;;;;;;43.30;15.98;;;1.90;99.90;;;;;;5053858;28;20052;-63
2023/12/01 02:18:23;;;;;;;41.83;15.55;;;1.90;99.90;;;;;;5065737;28;20049;-63
2023/12/01 02:20:50;;;;;;;36.67;14.65;;;1.90;99.90;;;;;;5071599;28;20166;-63
2023/12/01 02:23:16;;;;;;;38.70;15.50;;;1.90;99.90;;;;;;5067091;28;20154;-63
2023/12/01 02:25:42;;;;;;;42.13;15.13;;;1.90;99.90;;;;;;5071749;28;20539;-63
2023/12/01 02:28:07;;;;;;;31.15;14.15;;;1.90;99.90;;;;;;5072917;28;20032;-63
2023/12/01 02:30:33;;;;;;;39.42;15.07;;;1.90;99.90;;;;;;5072970;28;20406;-63
2023/12/01 02:32:59;;;;;;;33.92;14.43;;;1.80;99.90;;;;;;5072664;28;20048;-63
2023/12/01 02:35:29;;;;;;;38.72;15.35;;;1.80;99.90;;;;;;5055165;28;20055;-63
2023/12/01 02:37:56;;;;;;;38.35;14.85;;;1.80;99.90;;;;;;5037793;28;20052;-63
2023/12/01 02:40:23;;;;;;;37.88;14.90;;;1.80;99.90;;;;;;5072894;28;20491;-63
2023/12/01 02:42:49;;;;;;;34.70;14.55;;;1.80;99.90;;;;;;5054937;28;20120;-63
2023/12/01 02:45:16;;;;;;;34.78;14.57;;;1.80;99.90;;;;;;5072368;28;20094;-63
2023/12/01 02:47:45;;;;;;;36.30;15.00;;;1.80;99.90;;;;;;5052742;28;20586;-63
2023/12/01 02:50:12;;;;;;;35.58;15.45;;;1.70;99.90;;;;;;5068876;28;20036;-63
2023/12/01 02:52:38;;;;;;;37.13;15.45;;;1.80;99.90;;;;;;5069656;28;20040;-63
2023/12/01 02:55:04;;;;;;;35.80;14.50;;;1.70;99.90;;;;;;5067058;28;20520;-64
2023/12/01 02:57:29;;;;;;;34.38;13.98;;;1.70;99.90;;;;;;5070835;28;20102;-64
2023/12/01 02:59:55;;;;;;;35.72;14.02;;;1.70;99.90;;;;;;5071563;28;20040;-63
2023/12/01 03:02:22;;;;;;;32.17;13.95;;;2.60;99.90;;;;;;5072546;28;20029;-63
2023/12/01 03:04:47;;;;;;;34.10;14.32;;;1.70;99.90;;;;;;5067063;28;20483;-63
2023/12/01 03:07:13;;;;;;;35.80;14.70;;;1.70;99.90;;;;;;5068102;28;20124;-63
2023/12/01 03:09:38;;;;;;;33.38;13.88;;;1.70;99.90;;;;;;5053875;28;20048;-63
2023/12/01 03:12:04;;;;;;;32.42;13.15;;;1.70;99.90;;;;;;5072032;28;20039;-63
2023/12/01 03:14:30;;;;;;;31.00;12.70;;;1.70;99.90;;;;;;5054135;28;20093;-64
2023/12/01 03:16:56;;;;;;;33.05;12.82;;;1.60;99.90;;;;;;5064287;28;20056;-63
2023/12/01 03:19:22;;;;;;;29.88;12.80;;;0.60;99.90;;;;;;5071197;28;20387;-63
2023/12/01 03:21:48;;;;;;;34.75;12.98;;;1.60;99.90;;;;;;5071627;28;20514;-63
2023/12/01 03:24:14;;;;;;;31.33;13.18;;;1.60;99.90;;;;;;5064621;28;20029;-63
2023/12/01 03:26:39;;;;;;;31.02;13.20;;;1.60;99.90;;;;;;5067748;28;20052;-63
2023/12/01 03:29:05;;;;;;;28.95;12.32;;;1.60;99.90;;;;;;5053442;28;20055;-63
2023/12/01 03:31:31;;;;;;;30.05;13.30;;;1.50;99.90;;;;;;5072282;28;20136;-64
2023/12/01 03:33:56;;;;;;;33.88;13.20;;;1.50;99.90;;;;;;5071628;28;20466;-63
2023/12/01 03:36:22;;;;;;;34.83;13.65;;;1.50;99.90;;;;;;5060840;28;20116;-63
2023/12/01 03:38:48;;;;;;;31.38;13.88;;;1.50;99.90;;;;;;5068958;28;20483;-63
2023/12/01 03:41:14;;;;;;;31.17;13.15;;;1.50;99.90;;;;;;5068229;28;20036;-63
2023/12/01 03:43:39;;;;;;;33.40;13.70;;;1.50;99.90;;;;;;5053499;28;20036;-63
2023/12/01 03:46:05;;;;;;;33.08;12.73;;;1.50;99.90;;;;;;5049023;28;20403;-64
2023/12/01 03:48:33;;;;;;;31.10;13.32;;;1.50;99.90;;;;;;5067197;28;20667;-64
2023/12/01 03:51:00;;;;;;;33.78;13.05;;;1.40;99.90;;;;;;5036816;28;20049;-64
2023/12/01 03:53:25;;;;;;;31.98;12.98;;;1.40;99.90;;;;;;5071577;28;20545;-63
2023/12/01 03:55:53;;;;;;;29.75;12.40;;;1.40;99.90;;;;;;5070646;28;20036;-63
2023/12/01 03:58:19;;;;;;;27.98;12.63;;;1.40;99.90;;;;;;5068200;28;20430;-63
2023/12/01 04:00:44;;;;;;;26.88;12.75;;;1.40;99.90;;;;;;5062819;28;20037;-64
2023/12/01 04:03:10;;;;;;;29.13;12.85;;;1.40;99.90;;;;;;5070708;28;20082;-64
2023/12/01 04:05:37;;;;;;;29.30;13.05;;;1.40;99.90;;;;;;5070360;28;20036;-64
2023/12/01 04:08:03;;;;;;;28.20;13.18;;;1.40;99.90;;;;;;5070993;28;20045;-63
2023/12/01 04:10:29;;;;;;;30.48;12.98;;;1.40;99.90;;;;;;5070027;28;20028;-63
2023/12/01 04:12:55;;;;;;;26.20;11.93;;;1.30;99.90;;;;;;5052141;28;20158;-62
2023/12/01 04:15:24;;;;;;;27.85;12.40;;;1.30;99.90;;;;;;5066694;28;20508;-63
2023/12/01 04:17:50;;;;;;;27.85;12.45;;;1.30;99.90;;;;;;5069289;28;20519;-63
2023/12/01 04:20:25;;;;;;;26.17;11.85;;;1.30;99.90;;;;;;5070620;28;20221;-63
2023/12/01 04:22:57;;;;;;;25.88;11.15;;;1.30;99.90;;;;;;5059708;28;20138;-63
2023/12/01 04:25:23;;;;;;;26.52;11.93;;;1.20;99.90;;;;;;5070365;28;20044;-63
2023/12/01 04:27:49;;;;;;;25.17;11.70;;;1.20;99.90;;;;;;5051170;28;20045;-63
2023/12/01 04:30:15;;;;;;;22.35;11.60;;;1.20;99.90;;;;;;5065653;28;20064;-62
2023/12/01 04:32:43;;;;;;;24.30;11.43;;;1.20;99.90;;;;;;5068261;28;20445;-62
2023/12/01 04:35:10;;;;;;;28.00;13.23;;;1.20;99.90;;;;;;5069938;28;20042;-63
2023/12/01 04:37:36;;;;;;;25.65;11.90;;;1.20;99.90;;;;;;5070827;28;20045;-62
2023/12/01 04:40:03;;;;;;;26.60;12.48;;;1.10;99.90;;;;;;5069796;28;20047;-63
2023/12/01 04:42:29;;;;;;;22.58;10.85;;;1.10;99.90;;;;;;5070030;28;20112;-62
2023/12/01 04:44:55;;;;;;;27.73;13.02;;;1.10;99.90;;;;;;5070352;28;20120;-63
2023/12/01 04:47:20;;;;;;;25.50;12.05;;;1.10;99.90;;;;;;5067336;28;20029;-63
2023/12/01 04:49:46;;;;;;;24.92;12.25;;;1.10;99.90;;;;;;5061436;28;20040;-63
2023/12/01 04:52:11;;;;;;;26.23;12.65;;;1.00;99.90;;;;;;5069009;28;20046;-62
2023/12/01 04:54:37;;;;;;;26.90;11.77;;;1.10;99.90;;;;;;5067146;28;20452;-62
2023/12/01 04:57:03;;;;;;;25.92;12.18;;;1.00;99.90;;;;;;5067481;28;20033;-63
2023/12/01 04:59:28;;;;;;;29.13;13.00;;;1.00;99.90;;;;;;5047246;28;20494;-62
2023/12/01 05:01:54;;;;;;;24.52;12.60;;;1.00;99.90;;;;;;5070135;28;20044;-62
2023/12/01 05:04:19;;;;;;;27.00;12.40;;;1.00;99.90;;;;;;5069443;28;20037;-63
2023/12/01 05:06:45;;;;;;;26.58;12.80;;;1.00;99.90;;;;;;5062587;28;20071;-63
2023/12/01 05:09:16;;;;;;;26.70;12.65;;;1.00;99.90;;;;;;5070262;28;20040;-62
2023/12/01 05:11:44;;;;;;;24.30;12.35;;;1.00;99.90;;;;;;5069180;28;20044;-62
2023/12/01 05:14:10;;;;;;;25.38;12.43;;;0.90;99.90;;;;;;5070366;28;20040;-62
2023/12/01 05:16:36;;;;;;;27.60;12.35;;;0.90;99.90;;;;;;5051152;28;20048;-63
2023/12/01 05:19:01;;;;;;;30.10;13.65;;;0.90;99.90;;;;;;5070028;28;20036;-62
2023/12/01 05:21:27;;;;;;;26.35;11.60;;;0.90;99.90;;;;;;5050613;22;20202;-63
2023/12/01 05:23:53;;;;;;;30.55;12.48;;;0.90;99.90;;;;;;5047124;28;20045;-60
2023/12/01 05:26:19;;;;;;;27.42;12.95;;;0.80;99.90;;;;;;5019179;28;20041;-63
2023/12/01 05:28:45;;;;;;;28.30;13.02;;;0.80;99.90;;;;;;5011253;28;20419;-61
2023/12/01 05:31:10;;;;;;;28.00;12.88;;;0.80;99.90;;;;;;5012038;28;20080;-61
2023/12/01 05:33:39;;;;;;;28.73;13.05;;;0.80;99.90;;;;;;5029123;28;20452;-61
2023/12/01 05:36:08;;;;;;;28.77;13.38;;;0.80;99.90;;;;;;5029812;28;20487;-62
2023/12/01 05:38:34;;;;;;;28.38;13.05;;;0.80;99.90;;;;;;5025961;28;20093;-61
2023/12/01 05:41:00;;;;;;;29.85;13.77;;;0.80;99.90;;;;;;5017076;28;20034;-60
2023/12/01 05:43:26;;;;;;;28.40;13.25;;;0.70;99.90;;;;;;5025296;28;20044;-61
2023/12/01 05:45:51;;;;;;;27.98;12.93;;;0.70;99.90;;;;;;5025654;28;20431;-61
2023/12/01 05:48:17;;;;;;;26.67;12.98;;;0.70;99.90;;;;;;5029919;28;20043;-61
2023/12/01 05:50:42;;;;;;;27.80;13.18;;;0.70;99.90;;;;;;5023068;28;20038;-60
2023/12/01 05:53:10;;;;;;;31.60;13.68;;;0.70;99.90;;;;;;5007565;28;20088;-61
2023/12/01 05:55:36;;;;;;;30.52;13.20;;;0.60;99.90;;;;;;5026630;28;20129;-61
2023/12/01 05:58:04;;;;;;;29.30;14.23;;;0.60;99.90;;;;;;5011547;28;20103;-61
2023/12/01 06:00:31;;;;;;;27.20;12.50;;;0.60;99.90;;;;;;5032970;28;20407;-62
2023/12/01 06:03:05;;;;;;;32.05;13.85;;;0.50;99.90;;;;;;5029388;28;20087;-61
2023/12/01 06:05:31;;;;;;;35.08;14.90;;;0.50;99.90;;;;;;5008069;28;20049;-61
2023/12/01 06:07:58;;;;;;;29.63;13.57;;;0.40;99.90;;;;;;5028267;28;20420;-61
2023/12/01 06:10:26;;;;;;;32.63;14.85;;;0.40;99.90;;;;;;5029868;28;20407;-62
2023/12/01 06:12:53;;;;;;;32.00;14.30;;;0.40;99.90;;;;;;5027988;28;20085;-61
2023/12/01 06:15:19;;;;;;;31.63;13.95;;;0.30;99.90;;;;;;5024939;28;20037;-61
2023/12/01 06:17:49;;;;;;;30.17;13.20;;;0.30;99.90;;;;;;5027474;28;20055;-61
2023/12/01 06:20:17;;;;;;;35.00;14.43;;;0.20;99.90;;;;;;5024401;28;20395;-60
2023/12/01 06:22:50;;;;;;;30.77;13.63;;;0.20;99.90;;;;;;5024513;28;20025;-61
2023/12/01 06:25:20;;;;;;;29.73;13.50;;;0.10;99.90;;;;;;5027565;28;20065;-61
2023/12/01 06:27:46;;;;;;;32.95;14.10;;;0.00;99.90;;;;;;5031543;28;20400;-61
2023/12/01 06:30:14;;;;;;;31.70;13.65;;;0.00;99.90;;;;;;5029034;28;20041;-61
2023/12/01 06:32:43;;;;;;;30.27;13.80;;;0.00;99.90;;;;;;5026055;28;20448;-60
2023/12/01 06:35:16;;;;;;;32.88;14.40;;;-0.10;99.90;;;;;;5032861;28;20038;-62
2023/12/01 06:37:44;;;;;;;36.08;14.73;;;-0.10;99.90;;;;;;5030431;28;20065;-60
2023/12/01 06:40:15;;;;;;;31.35;12.90;;;-0.10;99.90;;;;;;5008501;28;20060;-62
2023/12/01 06:42:42;;;;;;;30.53;12.50;;;-0.10;99.90;;;;;;5032449;28;20487;-61
2023/12/01 06:45:10;;;;;;;32.22;14.02;;;-0.20;99.90;;;;;;5009097;28;20374;-61
2023/12/01 06:47:36;;;;;;;34.55;14.15;;;-0.20;99.90;;;;;;5031074;28;20057;-62
2023/12/01 06:50:02;;;;;;;30.08;12.52;;;-0.30;99.90;;;;;;5035827;28;20400;-62
2023/12/01 06:52:28;;;;;;;37.28;14.30;;;-0.30;99.90;;;;;;5027417;28;20451;-60
2023/12/01 06:54:54;;;;;;;31.52;13.65;;;-0.30;99.90;;;;;;5031268;28;20037;-62
2023/12/01 06:57:19;;;;;;;35.80;14.30;;;-0.30;99.90;;;;;;5035377;28;20121;-61
2023/12/01 06:59:45;;;;;;;35.05;13.95;;;-0.40;99.90;;;;;;5037063;28;20404;-62
2023/12/01 07:02:10;;;;;;;34.03;13.95;;;-0.40;99.90;;;;;;5028317;28;20445;-61
2023/12/01 07:04:36;;;;;;;31.92;13.50;;;-0.40;99.90;;;;;;5020809;28;20037;-61
2023/12/01 07:07:03;;;;;;;34.28;14.48;;;-0.40;99.90;;;;;;5031289;28;20048;-62
2023/12/01 07:09:28;;;;;;;32.50;14.15;;;-0.40;99.90;;;;;;5023123;28;20049;-62
2023/12/01 07:11:54;;;;;;;35.88;14.48;;;-0.50;99.90;;;;;;5030383;28;20041;-62
2023/12/01 07:14:23;;;;;;;31.40;13.73;;;-0.50;99.90;;;;;;5029655;28;20048;-61
2023/12/01 07:16:49;;;;;;;35.03;13.68;;;-0.50;99.90;;;;;;5023713;28;20061;-61
2023/12/01 07:19:16;;;;;;;31.38;13.35;;;-0.60;99.90;;;;;;5021379;28;20485;-61
2023/12/01 07:21:45;;;;;;;34.08;14.65;;;-0.60;99.90;;;;;;5028881;28;20131;-61
2023/12/01 07:24:10;;;;;;;31.02;13.18;;;-0.60;99.90;;;;;;5031585;28;20034;-61
2023/12/01 07:26:36;;;;;;;33.30;13.68;;;-0.60;99.90;;;;;;5030939;28;20449;-62
2023/12/01 07:29:04;;;;;;;34.20;13.63;;;-0.70;99.90;;;;;;5031072;28;20055;-61
2023/12/01 07:31:33;;;;;;;31.67;13.40;;;-0.70;99.90;;;;;;5032113;28;20095;-61
2023/12/01 07:33:59;;;;;;;35.35;14.65;;;-0.70;99.90;;;;;;5030091;28;20041;-62
2023/12/01 07:36:25;;;;;;;34.88;14.02;;;-0.70;99.90;;;;;;5030043;28;20048;-62
2023/12/01 07:38:51;;;;;;;36.10;13.20;;;-0.70;99.90;;;;;;5031307;28;20114;-62
2023/12/01 07:41:16;;;;;;;33.85;13.35;;;-0.70;99.90;;;;;;5031850;28;20114;-63
2023/12/01 07:43:42;;;;;;;32.85;13.30;;;-0.80;99.90;;;;;;5029019;28;20029;-61
2023/12/01 07:46:08;;;;;;;40.25;14.85;;;-0.80;99.90;;;;;;5030958;28;20065;-61
2023/12/01 07:48:37;;;;;;;37.35;14.43;;;-0.80;99.90;;;;;;5013795;28;20049;-61
2023/12/01 07:51:04;;;;;;;35.50;13.38;;;-0.80;99.90;;;;;;5024437;28;20043;-61
2023/12/01 07:53:30;;;;;;;37.13;13.75;;;-0.80;99.90;;;;;;5031359;28;20081;-61
2023/12/01 07:55:55;;;;;;;40.92;14.52;;;-0.80;99.90;;;;;;5027579;28;20464;-60
2023/12/01 07:58:21;;;;;;;40.00;15.60;;;-0.80;99.90;;;;;;5033254;28;20026;-61
2023/12/01 08:00:47;;;;;;;37.40;14.88;;;-0.80;99.90;;;;;;5037579;28;20033;-61
2023/12/01 08:03:12;;;;;;;44.35;16.52;;;-0.80;99.90;;;;;;5010613;28;20435;-62
2023/12/01 08:05:39;;;;;;;41.58;16.80;;;-0.80;99.90;;;;;;5036509;28;20037;-60
2023/12/01 08:08:05;;;;;;;41.97;15.40;;;-0.80;99.90;;;;;;5029807;28;20496;-62
2023/12/01 08:10:31;;;;;;;43.75;16.08;;;-0.80;99.90;;;;;;5027260;28;20042;-61
2023/12/01 08:12:56;;;;;;;39.70;15.38;;;-0.80;99.90;;;;;;5030900;28;20052;-61
2023/12/01 08:15:23;;;;;;;40.38;16.00;;;-0.80;99.90;;;;;;5033143;28;20033;-62
2023/12/01 08:17:49;;;;;;;41.28;15.38;;;-0.70;99.90;;;;;;5032407;28;20045;-61
2023/12/01 08:20:18;;;;;;;43.15;14.73;;;-0.70;99.90;;;;;;5031459;28;20041;-62
2023/12/01 08:22:46;;;;;;;41.08;14.15;;;-0.70;99.90;;;;;;5037840;28;20108;-63
2023/12/01 08:25:15;;;;;;;34.90;13.68;;;-0.80;99.90;;;;;;5029786;28;20041;-62
2023/12/01 08:27:41;;;;;;;42.35;15.18;;;-0.70;99.90;;;;;;5028081;28;20067;-63
2023/12/01 08:30:07;;;;;;;37.08;14.73;;;-0.70;99.90;;;;;;5030118;28;20697;-62
2023/12/01 08:32:33;;;;;;;39.60;14.90;;;-0.70;99.90;;;;;;5027537;28;20045;-62
2023/12/01 08:35:00;;;;;;;39.28;14.27;;;-0.70;99.90;;;;;;5028061;28;20385;-61
2023/12/01 08:37:25;;;;;;;39.58;15.15;;;-0.70;99.90;;;;;;5029774;28;20614;-63
2023/12/01 08:39:51;;;;;;;41.63;15.68;;;-0.70;99.90;;;;;;5035964;28;20128;-62
2023/12/01 08:42:20;;;;;;;45.63;14.98;;;-0.70;99.90;;;;;;5029491;28;20080;-63
2023/12/01 08:44:46;;;;;;;44.25;15.60;;;-0.70;99.90;;;;;;5028250;28;20125;-63
2023/12/01 08:47:13;;;;;;;38.97;15.00;;;-0.70;99.90;;;;;;5024962;28;20115;-62
2023/12/01 08:49:40;;;;;;;38.72;14.88;;;-0.70;99.90;;;;;;5023683;28;20478;-60
2023/12/01 08:52:07;;;;;;;41.90;15.02;;;-0.70;99.90;;;;;;5006184;28;20132;-61
2023/12/01 08:54:34;;;;;;;41.88;15.52;;;-0.70;99.90;;;;;;5023088;28;20428;-62
2023/12/01 08:56:59;;;;;;;43.10;15.82;;;-0.60;99.90;;;;;;5032857;28;20056;-61
2023/12/01 08:59:27;;;;;;;42.08;14.85;;;-0.60;99.90;;;;;;5034596;28;20480;-63
2023/12/01 09:01:53;;;;;;;41.70;15.50;;;-0.60;99.90;;;;;;5026350;28;20579;-63
2023/12/01 09:04:18;;;;;;;40.60;15.63;;;-0.60;99.90;;;;;;5028759;28;20045;-62
2023/12/01 09:06:44;;;;;;;40.30;14.93;;;-0.60;99.90;;;;;;5022208;28;20038;-62
2023/12/01 09:09:11;;;;;;;48.20;16.30;;;-0.60;99.90;;;;;;5030150;28;20041;-62
2023/12/01 09:11:37;;;;;;;45.58;15.98;;;-0.60;99.90;;;;;;5001565;28;20041;-61
2023/12/01 09:14:03;;;;;;;46.88;16.63;;;-0.60;99.90;;;;;;5008207;28;20607;-62
2023/12/01 09:16:28;;;;;;;46.85;16.25;;;-0.60;99.90;;;;;;5022440;28;20045;-62
2023/12/01 09:18:54;;;;;;;42.92;15.70;;;-0.60;99.90;;;;;;5016560;28;20443;-62
2023/12/01 09:21:19;;;;;;;40.22;15.38;;;-0.50;99.90;;;;;;5022718;28;20030;-63
2023/12/01 09:23:45;;;;;;;41.67;16.55;;;-0.50;99.90;;;;;;5026967;28;20037;-61
2023/12/01 09:26:17;;;;;;;42.67;16.27;;;-0.50;99.90;;;;;;5021980;28;20041;-62
2023/12/01 09:28:43;;;;;;;41.20;15.25;;;-0.50;99.90;;;;;;5026588;28;20044;-62
2023/12/01 09:31:10;;;;;;;46.97;16.42;;;-0.40;99.90;;;;;;5007245;28;20053;-62
2023/12/01 09:33:37;;;;;;;40.03;15.85;;;-0.50;99.90;;;;;;5007257;28;20057;-60
2023/12/01 09:36:04;;;;;;;40.08;15.02;;;-0.40;99.90;;;;;;5022880;28;20057;-62
2023/12/01 09:38:31;;;;;;;38.25;14.32;;;-0.40;99.90;;;;;;5016266;28;20048;-63
2023/12/01 09:40:57;;;;;;;62.33;17.00;;;-0.40;99.90;;;;;;5001288;28;20045;-61
2023/12/01 09:43:23;;;;;;;41.08;14.60;;;-0.30;99.90;;;;;;5024091;28;20116;-63
2023/12/01 09:45:50;;;;;;;39.40;14.75;;;-0.30;99.90;;;;;;5003915;28;20124;-62
2023/12/01 09:48:18;;;;;;;35.53;14.40;;;-0.30;99.90;;;;;;5028092;28;20630;-62
2023/12/01 09:50:44;;;;;;;38.88;14.82;;;-0.30;99.90;;;;;;5029173;28;20048;-62
2023/12/01 09:53:11;;;;;;;36.13;14.25;;;-0.20;99.90;;;;;;5022232;28;20045;-62
2023/12/01 09:55:36;;;;;;;38.20;14.25;;;-0.30;99.90;;;;;;5031869;28;20116;-63
2023/12/01 09:58:02;;;;;;;34.83;13.68;;;-0.30;99.90;;;;;;5032460;28;20125;-63
2023/12/01 10:00:28;;;;;;;29.58;12.27;;;-0.20;99.90;;;;;;5032831;28;20041;-62
2023/12/01 10:02:53;;;;;;;34.58;13.45;;;-0.20;99.90;;;;;;5028845;28;20034;-61
2023/12/01 10:05:19;;;;;;;30.88;12.70;;;-0.20;99.90;;;;;;5032300;28;20041;-62
2023/12/01 10:07:45;;;;;;;31.25;12.25;;;-0.20;99.90;;;;;;5033099;28;20040;-63
2023/12/01 10:10:22;;;;;;;29.58;12.68;;;-0.20;99.90;;;;;;5030205;28;20045;-62
2023/12/01 10:12:59;;;;;;;28.55;12.50;;;-0.20;99.90;;;;;;5033413;28;20225;-61
2023/12/01 10:15:26;;;;;;;33.97;13.30;;;-0.20;99.90;;;;;;5032490;28;20029;-61
2023/12/01 10:18:33;;;;;;;33.63;13.35;;;-0.10;99.90;;;;;;5014474;28;20301;-63
2023/12/01 10:21:02;;;;;;;28.98;11.90;;;-0.20;99.90;;;;;;5021620;28;20524;-62
2023/12/01 10:23:29;;;;;;;36.92;13.23;;;-0.10;99.90;;;;;;5033196;28;20037;-61
2023/12/01 10:25:56;;;;;;;27.02;12.10;;;-0.10;99.90;;;;;;5031684;28;20086;-61
2023/12/01 10:28:25;;;;;;;29.10;12.20;;;-0.10;99.90;;;;;;5036798;28;20033;-62
2023/12/01 10:30:56;;;;;;;28.00;12.27;;;-0.10;99.90;;;;;;5027198;28;20049;-61
2023/12/01 10:33:23;;;;;;;26.55;11.75;;;-0.10;99.90;;;;;;5012269;28;20045;-62
2023/12/01 10:36:09;;;;;;;27.85;11.77;;;-0.10;99.90;;;;;;5029960;28;20492;-61
2023/12/01 10:38:38;;;;;;;26.95;11.13;;;-0.10;99.90;;;;;;5011721;28;20492;-60
2023/12/01 10:41:05;;;;;;;27.13;10.95;;;0.00;99.90;;;;;;5031431;28;20465;-61
2023/12/01 10:43:32;;;;;;;26.05;11.23;;;-0.10;99.90;;;;;;5032743;28;20049;-62
2023/12/01 10:46:05;;;;;;;26.08;11.02;;;0.00;99.90;;;;;;5029342;28;20045;-61
2023/12/01 10:48:33;;;;;;;25.48;11.25;;;0.00;99.90;;;;;;5032805;28;20087;-61
2023/12/01 10:51:03;;;;;;;27.33;11.40;;;0.00;99.90;;;;;;5028037;28;20386;-61
2023/12/01 10:53:29;;;;;;;25.33;11.07;;;0.00;99.90;;;;;;5011596;28;20049;-60
2023/12/01 10:55:59;;;;;;;26.77;11.80;;;0.00;99.90;;;;;;5029890;28;20514;-61
2023/12/01 10:58:27;;;;;;;24.67;10.82;;;0.00;99.90;;;;;;5032122;28;20029;-62
2023/12/01 11:00:53;;;;;;;24.08;10.32;;;0.00;99.90;;;;;;5031035;28;20045;-60
2023/12/01 11:03:25;;;;;;;21.25;9.80;;;0.00;99.90;;;;;;5028042;28;20037;-61
2023/12/01 11:06:04;;;;;;;27.80;10.93;;;0.10;99.90;;;;;;5021297;28;20488;-61
2023/12/01 11:08:48;;;;;;;22.85;10.32;;;0.10;99.90;;;;;;5024855;28;20429;-62
2023/12/01 11:11:52;;;;;;;25.83;10.63;;;0.10;99.90;;;;;;5023510;28;20098;-61
2023/12/01 11:14:24;;;;;;;24.65;10.48;;;0.10;99.90;;;;;;5025693;28;20052;-62
2023/12/01 11:16:49;;;;;;;23.48;10.02;;;0.10;99.90;;;;;;5019753;28;20143;-62
2023/12/01 11:19:16;;;;;;;21.83;10.38;;;0.10;99.90;;;;;;5031779;28;20081;-62
2023/12/01 11:21:43;;;;;;;23.70;10.07;;;0.20;99.90;;;;;;5044395;22;20047;-78
2023/12/01 11:24:25;;;;;;;22.77;10.18;;;0.20;99.90;;;;;;5040775;28;20046;-77
2023/12/01 11:26:52;;;;;;;23.10;10.43;;;0.20;99.90;;;;;;5043274;28;20049;-78
2023/12/01 11:29:28;;;;;;;21.05;9.88;;;0.20;99.90;;;;;;5050702;28;20052;-78
2023/12/01 11:31:57;;;;;;;22.90;10.13;;;0.20;99.90;;;;;;5051164;28;20667;-78
2023/12/01 11:34:25;;;;;;;24.63;10.38;;;0.20;99.90;;;;;;5053244;28;20123;-78
2023/12/01 11:36:52;;;;;;;23.83;10.95;;;0.40;99.90;;;;;;5043315;28;20490;-79
2023/12/01 11:39:32;;;;;;;24.17;10.15;;;0.40;99.90;;;;;;5045585;28;20147;-76
2023/12/01 11:41:57;;;;;;;22.75;9.93;;;0.40;99.90;;;;;;5043549;28;20400;-78
2023/12/01 11:44:40;;;;;;;21.48;9.85;;;0.50;99.90;;;;;;5046479;28;20040;-78
2023/12/01 11:47:11;;;;;;;25.75;10.52;;;0.50;99.90;;;;;;5051333;28;20049;-79
2023/12/01 11:49:43;;;;;;;21.10;10.13;;;0.60;99.90;;;;;;5042376;28;20041;-78
2023/12/01 11:52:13;;;;;;;22.13;10.30;;;0.70;99.90;;;;;;5042695;28;20053;-78
2023/12/01 11:54:39;;;;;;;20.70;9.65;;;0.70;99.90;;;;;;5044951;28;20507;-77
2023/12/01 11:57:10;;;;;;;23.23;10.18;;;0.80;99.90;;;;;;5045758;28;20080;-78
2023/12/01 11:59:36;;;;;;;20.83;9.90;;;0.80;99.90;;;;;;5049175;28;20383;-76
2023/12/01 12:02:03;;;;;;;20.98;9.68;;;0.90;99.90;;;;;;5051805;28;20048;-78
2023/12/01 12:04:29;;;;;;;19.88;10.00;;;1.00;99.90;;;;;;5040655;28;20063;-79
2023/12/01 12:06:57;;;;;;;19.48;9.18;;;1.00;99.90;;;;;;5051112;28;20072;-79
2023/12/01 12:09:23;;;;;;;18.38;9.20;;;1.10;99.90;;;;;;5051303;28;20060;-79
2023/12/01 12:11:53;;;;;;;17.45;8.23;;;1.10;99.90;;;;;;5049351;28;20654;-78
2023/12/01 12:14:24;;;;;;;18.10;9.10;;;1.20;99.90;;;;;;5045061;28;20549;-79
2023/12/01 12:16:50;;;;;;;19.23;9.80;;;1.30;99.90;;;;;;5047834;28;20059;-79
2023/12/01 12:19:17;;;;;;;26.08;11.70;;;1.50;99.90;;;;;;5045631;28;20041;-78
2023/12/01 12:21:44;;;;;;;21.27;9.35;;;1.60;99.90;;;;;;5050014;28;20041;-79
2023/12/01 12:24:10;;;;;;;20.60;9.13;;;1.80;99.90;;;;;;5050816;28;20082;-78
2023/12/01 12:26:36;;;;;;;19.58;9.57;;;1.90;99.90;;;;;;5042481;28;20113;-79
2023/12/01 12:29:04;;;;;;;18.60;9.35;;;2.10;99.90;;;;;;5038282;28;20097;-79
2023/12/01 12:31:32;;;;;;;18.73;9.10;;;2.30;99.90;;;;;;5048322;28;20086;-78
2023/12/01 12:33:59;;;;;;;20.08;10.02;;;2.50;99.90;;;;;;5052251;28;20095;-77